Time;durP1;ratioP1;P1;durP2;ratioP2;P2;SDS_P1;SDS_P2;PMS_P1;PMS_P2;Temp;Humidity;BMP_temperature;BMP_pressure;BME280_temperature;BME280_humidity;BME280_pressure;Samples;Min_cycle;Max_cycle;Signal;HPM_P1;HPM_P2
2021/01/22 00:00:46;;;;;;;1.00;0.90;;;;;;;8.45;81.97;97243.38;5145447;27;20927;-65
2021/01/22 00:03:12;;;;;;;1.20;0.90;;;;;;;8.45;81.11;97228.22;5145619;27;20535;-64
2021/01/22 00:05:39;;;;;;;0.93;0.70;;;;;;;8.49;81.18;97241.97;5145006;27;20453;-64
2021/01/22 00:08:06;;;;;;;1.87;1.17;;;;;;;8.42;81.54;97241.06;5145603;27;20510;-65
2021/01/22 00:10:32;;;;;;;1.77;0.80;;;;;;;8.57;80.47;97219.63;5145193;27;20434;-65
2021/01/22 00:12:58;;;;;;;1.47;0.80;;;;;;;8.80;78.29;97230.75;5144835;27;20473;-65
2021/01/22 00:15:24;;;;;;;2.07;0.60;;;;;;;8.75;78.63;97225.19;5145057;27;20449;-65
2021/01/22 00:17:51;;;;;;;0.80;0.80;;;;;;;8.84;77.79;97220.50;5145382;27;20487;-65
2021/01/22 00:20:17;;;;;;;0.63;0.63;;;;;;;8.91;77.00;97223.16;5145176;27;20429;-65
2021/01/22 00:22:44;;;;;;;0.80;0.60;;;;;;;8.90;77.10;97222.31;5145563;27;20513;-65
2021/01/22 00:25:11;;;;;;;1.53;0.70;;;;;;;9.01;76.68;97220.91;5144678;27;20955;-65
2021/01/22 00:27:37;;;;;;;1.20;0.70;;;;;;;9.04;76.39;97207.16;5144804;27;20441;-65
2021/01/22 00:30:05;;;;;;;1.13;0.80;;;;;;;8.99;76.60;97215.78;5144295;27;20445;-65
2021/01/22 00:32:31;;;;;;;0.70;0.67;;;;;;;9.03;76.45;97210.88;5145460;27;20457;-65
2021/01/22 00:34:57;;;;;;;1.00;0.60;;;;;;;9.10;75.79;97203.69;5144471;27;20924;-65
2021/01/22 00:37:23;;;;;;;1.40;0.80;;;;;;;9.14;75.66;97185.44;5145289;27;20472;-65
2021/01/22 00:39:50;;;;;;;1.37;0.60;;;;;;;9.04;76.32;97194.69;5144985;27;20417;-65
2021/01/22 00:42:16;;;;;;;1.00;0.60;;;;;;;9.03;76.55;97201.03;5143984;27;20463;-65
2021/01/22 00:44:43;;;;;;;1.33;0.50;;;;;;;9.01;76.50;97179.09;5145522;27;20473;-65
2021/01/22 00:47:09;;;;;;;0.70;0.47;;;;;;;8.97;76.80;97191.16;5145502;27;20453;-65
2021/01/22 00:49:35;;;;;;;2.60;0.77;;;;;;;8.97;77.13;97169.84;5145513;27;20449;-66
2021/01/22 00:52:01;;;;;;;1.50;0.80;;;;;;;8.86;77.50;97173.16;5144929;27;20444;-64
2021/01/22 00:54:28;;;;;;;1.50;0.50;;;;;;;8.88;77.41;97165.78;5144979;27;20444;-63
2021/01/22 00:56:55;;;;;;;1.03;0.70;;;;;;;8.77;78.39;97164.56;5143824;27;20504;-64
2021/01/22 00:59:21;;;;;;;1.30;0.73;;;;;;;8.81;77.76;97159.63;5145098;27;20476;-64
2021/01/22 01:01:47;;;;;;;1.30;0.60;;;;;;;8.85;77.76;97161.69;5144182;27;20433;-64
2021/01/22 01:04:14;;;;;;;1.47;0.80;;;;;;;8.76;78.62;97157.56;5144896;27;20445;-64
2021/01/22 01:06:41;;;;;;;1.00;0.70;;;;;;;8.74;78.55;97148.97;5144226;27;20480;-64
2021/01/22 01:09:07;;;;;;;0.90;0.60;;;;;;;8.65;79.03;97123.59;5144662;27;20496;-64
2021/01/22 01:11:33;;;;;;;1.33;0.80;;;;;;;8.68;78.44;97139.16;5143410;27;20449;-64
2021/01/22 01:14:00;;;;;;;0.70;0.60;;;;;;;8.71;78.33;97129.94;5144587;27;20911;-64
2021/01/22 01:16:27;;;;;;;1.73;0.60;;;;;;;8.62;79.24;97139.97;5143690;27;20473;-64
2021/01/22 01:18:53;;;;;;;1.03;0.80;;;;;;;8.56;79.16;97130.97;5143918;27;20495;-63
2021/01/22 01:21:19;;;;;;;3.10;0.93;;;;;;;8.70;78.22;97129.13;5144008;27;20782;-64
2021/01/22 01:23:45;;;;;;;2.20;1.00;;;;;;;8.77;77.26;97119.28;5144398;27;20429;-63
2021/01/22 01:26:11;;;;;;;1.13;0.90;;;;;;;8.73;77.87;97122.53;5143075;27;20506;-63
2021/01/22 01:28:37;;;;;;;2.00;0.67;;;;;;;8.78;77.79;97115.56;5144341;27;20453;-63
2021/01/22 01:31:04;;;;;;;1.40;0.80;;;;;;;8.72;78.17;97116.41;5143419;27;20433;-64
2021/01/22 01:33:31;;;;;;;1.87;0.73;;;;;;;8.69;78.29;97108.81;5144308;27;20463;-64
2021/01/22 01:35:57;;;;;;;1.53;0.80;;;;;;;8.65;78.25;97120.91;5143647;27;20485;-64
2021/01/22 01:38:23;;;;;;;0.70;0.67;;;;;;;8.60;78.63;97112.72;5143801;27;20485;-63
2021/01/22 01:40:49;;;;;;;0.73;0.70;;;;;;;8.69;77.32;97092.03;5141938;27;20751;-63
2021/01/22 01:43:15;;;;;;;0.60;0.50;;;;;;;8.93;75.64;97087.91;5143260;27;20441;-63
2021/01/22 01:45:41;;;;;;;0.70;0.70;;;;;;;8.83;76.60;97099.78;5143348;27;20597;-63
2021/01/22 01:48:10;;;;;;;3.13;0.80;;;;;;;8.86;76.26;97103.88;5143676;27;20445;-63
2021/01/22 01:50:37;;;;;;;2.40;0.80;;;;;;;8.92;75.76;97092.38;5143465;27;20483;-64
2021/01/22 01:53:03;;;;;;;4.80;0.83;;;;;;;9.04;74.75;97093.41;5143094;27;20955;-64
2021/01/22 01:55:30;;;;;;;3.90;0.87;;;;;;;9.01;74.55;97091.16;5143116;27;20473;-64
2021/01/22 01:57:56;;;;;;;1.87;0.70;;;;;;;8.98;74.54;97088.91;5142831;27;20485;-64
2021/01/22 02:00:23;;;;;;;1.30;0.80;;;;;;;8.92;74.75;97091.56;5142606;27;20433;-64
2021/01/22 02:02:49;;;;;;;1.03;0.67;;;;;;;8.99;74.89;97087.06;5143606;27;20460;-63
2021/01/22 02:05:16;;;;;;;4.17;1.07;;;;;;;8.97;75.05;97105.09;5143209;27;20865;-64
2021/01/22 02:07:42;;;;;;;6.17;1.30;;;;;;;8.86;75.70;97095.91;5142904;27;20484;-63
2021/01/22 02:10:10;;;;;;;1.67;0.90;;;;;;;8.84;76.54;97090.78;5143099;27;20441;-64
2021/01/22 02:12:37;;;;;;;2.73;0.97;;;;;;;8.69;78.63;97082.19;5142153;27;20453;-64
2021/01/22 02:15:04;;;;;;;3.30;1.23;;;;;;;8.46;80.02;97083.44;5142733;27;20433;-64
2021/01/22 02:17:30;;;;;;;2.40;0.80;;;;;;;8.44;79.13;97069.50;5143034;27;20497;-64
2021/01/22 02:20:10;;;;;;;3.60;0.97;;;;;;;8.52;78.73;97087.09;5142345;27;20430;-64
2021/01/22 02:22:38;;;;;;;2.50;1.10;;;;;;;8.56;78.44;97091.00;5143123;27;20944;-64
2021/01/22 02:25:07;;;;;;;4.00;1.20;;;;;;;8.51;79.09;97079.34;5142697;27;20442;-64
2021/01/22 02:27:35;;;;;;;1.90;1.23;;;;;;;8.44;79.85;97090.81;5142607;27;20456;-64
2021/01/22 02:30:05;;;;;;;2.80;0.97;;;;;;;8.29;81.71;97079.50;5142273;27;20460;-64
2021/01/22 02:32:32;;;;;;;2.63;0.83;;;;;;;8.26;80.19;97071.91;5142776;27;20445;-64
2021/01/22 02:34:59;;;;;;;4.63;1.50;;;;;;;8.25;81.11;97067.66;5142853;27;20446;-64
2021/01/22 02:37:25;;;;;;;2.23;1.10;;;;;;;8.44;78.65;97058.06;5143081;27;20485;-63
2021/01/22 02:39:53;;;;;;;2.43;1.00;;;;;;;8.56;78.72;97080.38;5142356;27;20446;-64
2021/01/22 02:42:22;;;;;;;4.47;1.20;;;;;;;8.52;79.22;97071.13;5141263;27;20503;-64
2021/01/22 02:44:49;;;;;;;3.23;1.00;;;;;;;8.42;80.65;97073.34;5142357;27;20465;-63
2021/01/22 02:47:16;;;;;;;2.50;1.00;;;;;;;8.39;80.02;97066.63;5142146;27;20481;-64
2021/01/22 02:49:42;;;;;;;5.53;0.97;;;;;;;8.36;80.72;97080.31;5142242;27;20455;-64
2021/01/22 02:52:09;;;;;;;2.03;1.00;;;;;;;8.39;80.34;97065.81;5142782;27;20464;-64
2021/01/22 02:54:36;;;;;;;2.60;0.90;;;;;;;8.57;78.54;97067.84;5142713;27;20437;-63
2021/01/22 02:57:08;;;;;;;2.50;1.07;;;;;;;8.49;79.34;97060.91;5141025;27;20503;-64
2021/01/22 02:59:41;;;;;;;2.70;1.10;;;;;;;8.64;78.28;97063.34;5142117;28;20480;-64
2021/01/22 03:02:17;;;;;;;1.53;1.00;;;;;;;8.69;78.08;97060.88;5142941;28;20421;-64
2021/01/22 03:04:43;;;;;;;3.00;1.10;;;;;;;8.58;78.56;97072.97;5142721;28;20433;-64
2021/01/22 03:07:11;;;;;;;1.33;0.50;;;;;;;8.48;80.43;97086.69;5142437;28;20484;-64
2021/01/22 03:09:41;;;;;;;0.97;0.67;;;;;;;8.43;79.86;97075.84;5142550;28;20465;-63
2021/01/22 03:12:08;;;;;;;3.37;1.27;;;;;;;8.40;80.54;97062.94;5141922;28;20461;-64
2021/01/22 03:14:35;;;;;;;1.27;0.70;;;;;;;8.56;78.75;97077.69;5142784;28;20472;-64
2021/01/22 03:17:01;;;;;;;5.03;1.30;;;;;;;8.48;79.24;97081.38;5141852;28;20492;-63
2021/01/22 03:19:28;;;;;;;2.20;1.00;;;;;;;8.44;79.40;97084.66;5142242;28;20445;-64
2021/01/22 03:21:54;;;;;;;1.80;0.83;;;;;;;8.37;80.24;97105.94;5142538;28;20460;-63
2021/01/22 03:24:20;;;;;;;1.30;0.70;;;;;;;8.29;81.74;97127.41;5141962;28;20449;-65
2021/01/22 03:26:46;;;;;;;1.47;0.80;;;;;;;7.88;86.13;97181.53;5141311;28;20457;-63
2021/01/22 03:29:12;;;;;;;1.53;0.70;;;;;;;7.37;84.26;97219.13;5141903;28;20453;-63
2021/01/22 03:31:39;;;;;;;1.43;0.50;;;;;;;6.93;83.88;97242.31;5142291;28;20478;-63
2021/01/22 03:34:05;;;;;;;1.53;0.70;;;;;;;6.58;84.55;97235.06;5141570;28;20473;-62
2021/01/22 03:36:32;;;;;;;1.10;0.60;;;;;;;6.39;85.88;97262.22;5141811;28;20461;-63
2021/01/22 03:38:58;;;;;;;0.80;0.50;;;;;;;6.32;86.69;97280.72;5142081;28;20453;-64
2021/01/22 03:41:24;;;;;;;0.80;0.53;;;;;;;6.09;86.60;97286.13;5141365;28;21058;-63
2021/01/22 03:43:51;;;;;;;1.63;0.90;;;;;;;5.82;86.90;97303.53;5141644;28;20457;-63
2021/01/22 03:46:17;;;;;;;0.70;0.60;;;;;;;5.57;87.09;97318.84;5141535;28;20461;-63
2021/01/22 03:48:43;;;;;;;0.90;0.60;;;;;;;5.28;87.21;97323.09;5142207;28;20453;-63
2021/01/22 03:51:09;;;;;;;0.50;0.50;;;;;;;5.05;86.95;97345.13;5141716;28;20467;-63
2021/01/22 03:53:36;;;;;;;0.80;0.80;;;;;;;5.01;87.62;97358.91;5142070;28;20498;-63
2021/01/22 03:56:02;;;;;;;0.73;0.73;;;;;;;4.81;87.23;97377.03;5140378;28;20501;-63
2021/01/22 03:58:29;;;;;;;1.17;0.70;;;;;;;4.65;86.67;97396.50;5141956;28;20604;-64
2021/01/22 04:00:55;;;;;;;0.70;0.63;;;;;;;4.47;86.57;97407.34;5141591;28;20441;-63
2021/01/22 04:03:21;;;;;;;0.40;0.40;;;;;;;4.28;85.29;97405.91;5141923;27;20437;-63
2021/01/22 04:05:47;;;;;;;0.93;0.50;;;;;;;4.14;85.59;97440.00;5145346;27;20453;-64
2021/01/22 04:08:13;;;;;;;0.50;0.50;;;;;;;4.05;85.77;97446.31;5145210;27;20448;-63
2021/01/22 04:10:40;;;;;;;0.60;0.60;;;;;;;3.87;86.15;97458.88;5145308;27;20481;-63
2021/01/22 04:13:06;;;;;;;0.50;0.50;;;;;;;3.88;86.77;97457.91;5144419;27;20461;-63
2021/01/22 04:15:32;;;;;;;0.50;0.50;;;;;;;3.79;85.92;97469.47;5145328;27;20441;-63
2021/01/22 04:17:59;;;;;;;0.50;0.50;;;;;;;3.68;86.05;97463.53;5145201;27;20549;-63
2021/01/22 04:20:25;;;;;;;0.50;0.50;;;;;;;3.64;86.48;97474.59;5145077;27;20452;-63
2021/01/22 04:22:51;;;;;;;0.70;0.60;;;;;;;3.61;86.87;97493.41;5145279;27;20827;-63
2021/01/22 04:25:18;;;;;;;0.50;0.50;;;;;;;3.67;85.88;97509.44;5144828;27;20441;-63
2021/01/22 04:27:45;;;;;;;0.63;0.63;;;;;;;3.64;86.94;97515.03;5144124;27;20479;-63
2021/01/22 04:30:12;;;;;;;1.60;1.00;;;;;;;3.51;85.85;97520.00;5145118;27;20457;-63
2021/01/22 04:32:40;;;;;;;1.10;0.70;;;;;;;3.50;85.71;97532.34;5145371;27;20478;-64
2021/01/22 04:35:08;;;;;;;0.90;0.67;;;;;;;3.57;85.72;97527.25;5144231;27;20509;-63
2021/01/22 04:37:34;;;;;;;0.70;0.70;;;;;;;3.50;86.32;97539.47;5145202;27;20514;-63
2021/01/22 04:40:00;;;;;;;1.83;1.10;;;;;;;3.52;86.07;97542.75;5144754;27;20460;-63
2021/01/22 04:42:26;;;;;;;1.00;0.90;;;;;;;3.46;86.46;97548.72;5143548;27;20488;-63
2021/01/22 04:44:53;;;;;;;1.10;1.00;;;;;;;3.51;86.54;97571.00;5144504;27;20501;-63
2021/01/22 04:47:19;;;;;;;1.23;1.13;;;;;;;3.47;86.32;97579.41;5144268;27;20941;-63
2021/01/22 04:49:49;;;;;;;2.37;2.17;;;;;;;3.37;85.16;97579.56;5144858;27;20468;-63
2021/01/22 04:52:15;;;;;;;1.17;1.10;;;;;;;3.32;85.25;97581.84;5144974;27;20458;-63
2021/01/22 04:54:42;;;;;;;1.20;1.10;;;;;;;3.34;85.38;97585.16;5144830;27;20499;-63
2021/01/22 04:57:09;;;;;;;1.97;1.77;;;;;;;3.39;85.41;97585.50;5143060;27;20532;-63
2021/01/22 04:59:40;;;;;;;1.63;1.53;;;;;;;3.35;85.33;97589.44;5144582;27;20449;-63
2021/01/22 05:02:07;;;;;;;1.70;1.60;;;;;;;3.36;85.59;97593.72;5144458;27;20444;-63
2021/01/22 05:04:33;;;;;;;3.47;2.10;;;;;;;3.44;85.46;97609.63;5144871;27;20437;-63
2021/01/22 05:07:00;;;;;;;2.50;2.20;;;;;;;3.48;86.34;97610.13;5144228;27;20437;-63
2021/01/22 05:09:26;;;;;;;2.20;2.00;;;;;;;3.48;85.79;97615.41;5144070;27;20477;-63
2021/01/22 05:11:53;;;;;;;1.60;1.50;;;;;;;3.41;85.40;97604.66;5135113;27;20462;-63
2021/01/22 05:14:19;;;;;;;1.80;1.70;;;;;;;3.36;85.76;97617.50;5124913;27;20857;-63
2021/01/22 05:16:59;;;;;;;2.90;2.47;;;;;;;3.33;86.04;97610.75;5143844;27;20456;-63
2021/01/22 05:19:26;;;;;;;2.13;1.97;;;;;;;3.22;85.63;97613.66;5142929;27;20445;-63
2021/01/22 05:21:53;;;;;;;2.90;2.40;;;;;;;3.29;85.67;97611.22;5143790;27;20460;-63
2021/01/22 05:24:21;;;;;;;2.70;2.47;;;;;;;3.28;85.91;97612.19;5144304;27;20951;-63
2021/01/22 05:26:47;;;;;;;3.77;2.30;;;;;;;3.29;85.88;97619.13;5143115;27;20445;-63
2021/01/22 05:29:15;;;;;;;3.83;2.70;;;;;;;3.12;85.86;97626.97;5144348;27;20473;-63
2021/01/22 05:31:41;;;;;;;4.07;3.20;;;;;;;3.16;85.87;97615.13;5124230;28;20461;-63
2021/01/22 05:34:07;;;;;;;3.60;3.30;;;;;;;3.18;85.82;97623.72;5123730;28;20437;-63
2021/01/22 05:36:35;;;;;;;3.33;3.03;;;;;;;3.16;86.29;97622.19;5134046;27;20825;-63
2021/01/22 05:39:04;;;;;;;4.50;3.00;;;;;;;3.08;86.54;97643.28;5143120;27;20485;-63
2021/01/22 05:41:30;;;;;;;3.40;3.10;;;;;;;3.12;86.04;97642.81;5143376;27;20476;-63
2021/01/22 05:43:57;;;;;;;3.57;3.00;;;;;;;3.10;86.76;97641.31;5143098;27;20448;-63
2021/01/22 05:46:25;;;;;;;3.77;3.10;;;;;;;3.06;87.17;97646.09;5143588;27;20466;-63
2021/01/22 05:49:06;;;;;;;3.60;3.20;;;;;;;3.20;87.23;97660.50;5143045;27;20470;-63
2021/01/22 05:51:34;;;;;;;4.30;3.90;;;;;;;3.14;86.93;97667.25;5140357;27;20965;-63
2021/01/22 05:54:00;;;;;;;10.60;4.13;;;;;;;3.19;86.66;97669.41;5136466;27;20819;-64
2021/01/22 05:56:26;;;;;;;4.27;3.23;;;;;;;3.18;86.86;97668.59;5140069;27;20480;-63
2021/01/22 05:58:53;;;;;;;4.60;3.50;;;;;;;3.20;86.64;97673.72;5142443;27;20489;-63
2021/01/22 06:01:20;;;;;;;4.20;3.77;;;;;;;3.21;86.16;97688.56;5141667;27;20445;-64
2021/01/22 06:03:47;;;;;;;4.23;3.77;;;;;;;3.16;86.59;97685.56;5131356;27;20450;-63
2021/01/22 06:06:14;;;;;;;5.00;3.70;;;;;;;3.21;86.06;97670.06;5133037;27;20472;-64
2021/01/22 06:08:49;;;;;;;6.40;4.40;;;;;;;3.17;86.35;97682.75;5141222;27;20547;-64
2021/01/22 06:11:16;;;;;;;4.83;4.00;;;;;;;3.15;86.62;97676.81;5136928;27;20445;-64
2021/01/22 06:13:45;;;;;;;4.60;4.20;;;;;;;3.22;86.63;97686.75;5134155;27;20441;-64
2021/01/22 06:16:15;;;;;;;5.03;4.23;;;;;;;3.17;85.71;97687.22;5127234;27;20457;-64
2021/01/22 06:18:47;;;;;;;4.90;3.90;;;;;;;3.17;85.89;97698.59;5139166;27;20512;-63
2021/01/22 06:21:17;;;;;;;5.40;4.77;;;;;;;3.23;86.49;97699.81;5141986;27;20462;-63
2021/01/22 06:23:44;;;;;;;6.47;5.33;;;;;;;3.32;85.60;97698.84;5141221;27;20844;-64
2021/01/22 06:26:11;;;;;;;6.23;5.27;;;;;;;3.23;86.00;97693.69;5140602;27;20458;-63
2021/01/22 06:28:38;;;;;;;7.10;5.10;;;;;;;3.15;86.08;97700.56;5124606;27;20469;-64
2021/01/22 06:31:05;;;;;;;6.13;5.50;;;;;;;3.18;86.40;97702.09;5137284;27;20474;-64
2021/01/22 06:33:31;;;;;;;8.30;6.37;;;;;;;3.14;86.71;97704.22;5128393;27;20501;-63
2021/01/22 06:35:58;;;;;;;11.23;6.57;;;;;;;3.21;86.62;97699.13;5141051;27;20588;-64
2021/01/22 06:38:24;;;;;;;9.67;6.57;;;;;;;3.24;85.92;97709.38;5137336;27;20493;-63
2021/01/22 06:40:51;;;;;;;8.20;6.27;;;;;;;3.17;85.83;97718.91;5131855;27;20462;-63
2021/01/22 06:43:18;;;;;;;9.53;6.80;;;;;;;3.07;86.18;97705.81;5140039;27;20438;-63
2021/01/22 06:45:45;;;;;;;8.40;5.93;;;;;;;3.07;85.93;97710.25;5137415;27;20433;-63
2021/01/22 06:48:11;;;;;;;9.30;7.20;;;;;;;3.08;86.19;97720.66;5141312;27;20441;-63
2021/01/22 06:50:38;;;;;;;9.17;6.93;;;;;;;3.08;86.36;97725.13;5141831;27;20629;-63
2021/01/22 06:53:06;;;;;;;9.47;6.53;;;;;;;3.12;87.11;97726.47;5134427;27;20445;-65
2021/01/22 06:55:32;;;;;;;9.50;6.50;;;;;;;3.17;86.24;97727.66;5140774;27;20676;-65
2021/01/22 06:58:24;;;;;;;9.73;7.00;;;;;;;3.32;85.79;97727.91;5137966;27;20481;-64
2021/01/22 07:00:52;;;;;;;10.00;7.07;;;;;;;3.35;86.20;97732.88;5136903;28;20473;-64
2021/01/22 07:03:48;;;;;;;10.10;7.37;;;;;;;3.33;85.69;97748.06;5138359;28;20441;-64
2021/01/22 07:06:52;;;;;;;11.50;8.07;;;;;;;3.27;85.46;97730.19;5133953;28;20500;-64
2021/01/22 07:09:19;;;;;;;10.97;8.60;;;;;;;3.29;85.66;97744.06;5137163;28;21054;-65
2021/01/22 07:11:58;;;;;;;10.27;7.30;;;;;;;3.23;85.74;97742.06;5128938;28;20461;-65
2021/01/22 07:14:39;;;;;;;11.47;9.10;;;;;;;3.26;85.35;97743.53;5138692;28;20464;-65
2021/01/22 07:17:18;;;;;;;13.53;10.20;;;;;;;3.28;85.06;97749.50;5139656;28;20464;-65
2021/01/22 07:20:01;;;;;;;12.27;10.63;;;;;;;3.32;85.87;97764.06;5140258;28;20477;-63
2021/01/22 07:22:28;;;;;;;14.10;11.70;;;;;;;3.32;85.23;97762.25;5137757;28;20441;-63
2021/01/22 07:24:57;;;;;;;16.30;12.00;;;;;;;3.27;85.46;97768.97;5140122;28;20445;-64
2021/01/22 07:27:23;;;;;;;14.77;10.73;;;;;;;3.26;85.91;97765.50;5140331;28;20462;-64
2021/01/22 07:30:13;;;;;;;13.50;11.57;;;;;;;3.24;85.78;97775.38;5138804;28;20948;-64
2021/01/22 07:32:40;;;;;;;16.30;12.70;;;;;;;3.20;86.03;97774.88;5135614;28;20908;-65
2021/01/22 07:35:07;;;;;;;16.50;13.00;;;;;;;3.23;85.94;97784.31;5128097;28;20520;-65
2021/01/22 07:37:39;;;;;;;17.97;13.80;;;;;;;3.23;86.37;97779.03;5139154;27;20485;-64
2021/01/22 07:40:07;;;;;;;23.90;15.57;;;;;;;3.19;85.99;97780.28;5141001;27;20481;-63
2021/01/22 07:42:34;;;;;;;19.10;13.53;;;;;;;3.22;86.02;97777.34;5142343;27;20558;-67
2021/01/22 07:45:06;;;;;;;17.50;14.10;;;;;;;3.24;85.99;97780.66;5142903;27;20490;-64
2021/01/22 07:47:34;;;;;;;24.10;16.77;;;;;;;3.25;85.63;97777.06;5143983;27;20452;-65
2021/01/22 07:50:03;;;;;;;22.40;16.07;;;;;;;3.32;85.59;97782.53;5143335;27;20546;-66
2021/01/22 07:52:30;;;;;;;20.37;15.93;;;;;;;3.27;85.95;97793.56;5142424;27;20445;-65
2021/01/22 07:54:57;;;;;;;22.33;15.17;;;;;;;3.30;85.90;97808.25;5143102;27;20475;-65
2021/01/22 07:57:25;;;;;;;20.20;14.97;;;;;;;3.39;85.33;97808.16;5143185;27;20500;-66
2021/01/22 07:59:52;;;;;;;23.60;16.00;;;;;;;3.39;85.45;97810.00;5142639;27;20493;-65
2021/01/22 08:02:20;;;;;;;18.73;14.60;;;;;;;3.47;85.17;97812.69;5138778;27;20450;-66
2021/01/22 08:04:55;;;;;;;26.20;16.50;;;;;;;3.45;85.36;97822.56;5126977;27;20453;-64
2021/01/22 08:07:34;;;;;;;22.60;15.97;;;;;;;3.49;85.25;97821.28;5131485;27;20453;-64
2021/01/22 08:10:00;;;;;;;22.90;15.80;;;;;;;3.57;85.22;97836.34;5138607;27;20448;-64
2021/01/22 08:12:26;;;;;;;22.23;15.57;;;;;;;3.57;85.13;97837.16;5127015;27;20445;-65
2021/01/22 08:14:53;;;;;;;21.57;16.13;;;;;;;3.51;85.56;97835.16;5143865;27;20449;-65
2021/01/22 08:17:19;;;;;;;20.73;15.80;;;;;;;3.50;85.04;97825.56;5143692;27;20481;-63
2021/01/22 08:19:47;;;;;;;22.30;15.90;;;;;;;3.45;85.67;97834.94;5142883;27;20441;-64
2021/01/22 08:22:16;;;;;;;22.17;15.13;;;;;;;3.52;84.86;97830.69;5142463;27;20957;-65
2021/01/22 08:24:49;;;;;;;18.03;13.87;;;;;;;3.60;84.69;97832.56;5143515;27;20490;-64
2021/01/22 08:27:16;;;;;;;22.20;14.80;;;;;;;3.60;85.26;97833.38;5143378;27;20445;-65
2021/01/22 08:29:43;;;;;;;22.83;16.00;;;;;;;3.52;84.52;97842.06;5141239;27;20537;-65
2021/01/22 08:32:11;;;;;;;22.77;15.90;;;;;;;3.60;85.12;97846.59;5141538;27;20544;-64
2021/01/22 08:34:38;;;;;;;24.37;16.70;;;;;;;3.69;84.70;97847.47;5140858;27;20976;-65
2021/01/22 08:37:08;;;;;;;24.63;14.53;;;;;;;3.63;84.71;97846.31;5139413;27;20445;-61
2021/01/22 08:39:48;;;;;;;23.70;16.23;;;;;;;3.68;84.53;97851.94;5142909;27;20448;-63
2021/01/22 08:42:14;;;;;;;20.10;13.70;;;;;;;3.75;84.26;97844.22;5139767;27;21089;-64
2021/01/22 08:44:51;;;;;;;20.03;15.33;;;;;;;3.68;84.53;97853.75;5141955;27;20454;-64
2021/01/22 08:47:17;;;;;;;18.40;14.33;;;;;;;3.73;84.28;97859.38;5142283;27;20445;-64
2021/01/22 08:49:52;;;;;;;22.23;14.80;;;;;;;3.81;84.17;97851.50;5137878;27;20449;-64
2021/01/22 08:52:19;;;;;;;19.50;14.93;;;;;;;3.88;83.36;97859.66;5142066;27;20468;-65
2021/01/22 08:54:46;;;;;;;20.47;14.90;;;;;;;4.00;83.20;97860.22;5142391;27;20580;-64
2021/01/22 08:57:13;;;;;;;19.37;15.03;;;;;;;4.05;83.08;97856.09;5140945;27;20479;-64
2021/01/22 08:59:53;;;;;;;20.37;15.37;;;;;;;3.98;83.29;97864.84;5136838;27;20517;-65
2021/01/22 09:02:39;;;;;;;19.07;13.40;;;;;;;4.05;83.42;97868.50;5136921;27;20449;-64
2021/01/22 09:05:07;;;;;;;20.83;14.03;;;;;;;4.04;83.20;97880.88;5139135;27;20513;-64
2021/01/22 09:07:35;;;;;;;17.03;12.87;;;;;;;4.00;84.09;97889.28;5141593;27;20518;-65
2021/01/22 09:10:01;;;;;;;17.50;13.50;;;;;;;3.94;83.24;97893.38;5138693;27;20453;-65
2021/01/22 09:12:28;;;;;;;18.27;13.53;;;;;;;4.01;83.14;97896.22;5139501;27;20453;-64
2021/01/22 09:14:59;;;;;;;20.30;14.63;;;;;;;4.00;83.28;97905.97;5137726;27;20502;-66
2021/01/22 09:17:28;;;;;;;17.57;13.07;;;;;;;4.08;83.48;97894.59;5134529;27;20485;-64
2021/01/22 09:19:59;;;;;;;20.20;14.40;;;;;;;4.12;82.90;97896.78;5141058;27;21084;-65
2021/01/22 09:22:26;;;;;;;26.57;14.47;;;;;;;4.18;83.10;97911.19;5142339;27;20441;-65
2021/01/22 09:24:53;;;;;;;17.83;13.17;;;;;;;4.24;82.23;97912.38;5141034;27;20467;-65
2021/01/22 09:27:20;;;;;;;18.07;14.50;;;;;;;4.27;82.70;97904.13;5131005;27;20737;-64
2021/01/22 09:29:46;;;;;;;21.63;13.63;;;;;;;4.45;81.76;97899.56;5137950;27;21311;-64
2021/01/22 09:32:12;;;;;;;17.37;13.47;;;;;;;4.25;82.20;97908.75;5135066;27;20506;-64
2021/01/22 09:34:39;;;;;;;24.10;13.70;;;;;;;4.29;82.26;97905.63;5140127;27;20445;-64
2021/01/22 09:37:05;;;;;;;15.90;11.57;;;;;;;4.38;81.87;97905.69;5142222;27;20464;-66
2021/01/22 09:39:31;;;;;;;19.17;12.30;;;;;;;4.43;82.30;97906.84;5142097;27;20461;-64
2021/01/22 09:41:59;;;;;;;20.03;12.97;;;;;;;4.40;80.67;97891.28;5139882;27;20896;-65
2021/01/22 09:44:25;;;;;;;16.20;12.20;;;;;;;4.29;81.59;97904.81;5137764;27;20446;-64
2021/01/22 09:46:52;;;;;;;18.20;14.40;;;;;;;4.43;82.08;97911.31;5142025;27;20457;-64
2021/01/22 09:49:18;;;;;;;15.90;12.23;;;;;;;4.56;81.80;97910.84;5141301;27;20451;-64
2021/01/22 09:51:44;;;;;;;19.47;12.50;;;;;;;4.71;80.95;97922.50;5140079;27;20446;-64
2021/01/22 09:54:11;;;;;;;18.13;12.47;;;;;;;4.50;81.38;97930.84;5139828;27;20456;-64
2021/01/22 09:56:37;;;;;;;14.37;12.00;;;;;;;4.59;81.63;97921.13;5139560;27;20546;-65
2021/01/22 09:59:08;;;;;;;16.33;13.03;;;;;;;4.52;81.66;97920.94;5141983;27;20488;-64
2021/01/22 10:01:34;;;;;;;18.47;13.90;;;;;;;4.40;81.34;97933.63;5140852;27;20458;-64
2021/01/22 10:04:01;;;;;;;17.23;12.73;;;;;;;4.51;81.48;97929.84;5139848;27;20947;-64
2021/01/22 10:06:28;;;;;;;17.33;12.03;;;;;;;4.64;80.88;97950.59;5141753;27;20536;-66
2021/01/22 10:08:54;;;;;;;15.53;11.77;;;;;;;4.46;81.25;97948.88;5142146;27;20514;-66
2021/01/22 10:11:21;;;;;;;16.70;12.00;;;;;;;4.54;81.56;97945.41;5135381;27;20479;-65
2021/01/22 10:13:53;;;;;;;15.73;11.93;;;;;;;4.55;81.14;97952.38;5140808;27;20909;-65
2021/01/22 10:16:21;;;;;;;19.53;12.03;;;;;;;4.68;80.67;97958.03;5138187;27;20439;-65
2021/01/22 10:18:51;;;;;;;15.93;11.77;;;;;;;4.77;79.97;97950.94;5128495;27;21048;-65
2021/01/22 10:21:18;;;;;;;16.83;13.10;;;;;;;4.84;80.41;97954.66;5139537;27;20449;-65
2021/01/22 10:23:46;;;;;;;18.17;12.50;;;;;;;4.97;80.21;97954.16;5141774;27;20490;-64
2021/01/22 10:26:12;;;;;;;17.23;11.43;;;;;;;4.83;78.72;97957.44;5140141;27;20459;-65
2021/01/22 10:28:39;;;;;;;18.80;12.23;;;;;;;4.89;79.46;97970.03;5140271;27;21217;-64
2021/01/22 10:31:05;;;;;;;16.03;12.13;;;;;;;4.95;78.86;97972.03;5141166;27;20452;-64
2021/01/22 10:33:32;;;;;;;17.60;12.10;;;;;;;5.00;79.02;97976.84;5140709;27;20476;-64
2021/01/22 10:35:59;;;;;;;16.87;11.90;;;;;;;4.99;79.19;97989.25;5141513;27;20433;-63
2021/01/22 10:38:26;;;;;;;18.63;10.90;;;;;;;4.99;79.29;97981.31;5133638;27;21339;-64
2021/01/22 10:40:53;;;;;;;17.67;11.60;;;;;;;5.09;78.32;97989.13;5136730;27;20520;-64
2021/01/22 10:43:19;;;;;;;15.37;12.43;;;;;;;5.00;78.72;97982.13;5140576;27;20453;-65
2021/01/22 10:45:46;;;;;;;17.10;11.17;;;;;;;5.03;77.87;97987.13;5140139;27;20474;-67
2021/01/22 10:48:12;;;;;;;13.70;9.77;;;;;;;4.93;78.72;97997.00;5139652;27;20453;-65
2021/01/22 10:50:39;;;;;;;15.83;10.80;;;;;;;5.01;78.60;97989.91;5140621;27;20491;-63
2021/01/22 10:53:05;;;;;;;13.90;11.53;;;;;;;4.97;78.54;98009.78;5141403;27;20444;-65
2021/01/22 10:55:32;;;;;;;16.63;10.70;;;;;;;4.91;78.07;97999.81;5133938;27;20459;-65
2021/01/22 10:57:58;;;;;;;18.17;12.10;;;;;;;5.01;77.92;98005.00;5111738;28;20972;-64
2021/01/22 11:00:25;;;;;;;21.10;11.70;;;;;;;5.11;77.52;98005.69;5118539;28;20530;-65
2021/01/22 11:02:51;;;;;;;17.40;10.90;;;;;;;5.18;76.62;98019.94;5117291;28;20460;-64
2021/01/22 11:05:17;;;;;;;16.53;11.50;;;;;;;5.18;77.12;98027.88;5114773;28;20453;-62
2021/01/22 11:07:45;;;;;;;27.40;11.87;;;;;;;5.21;77.10;98045.28;5125489;28;20457;-63
2021/01/22 11:10:12;;;;;;;14.70;11.27;;;;;;;5.12;77.60;98043.59;5124734;28;20449;-64
2021/01/22 11:12:38;;;;;;;17.40;11.13;;;;;;;5.23;76.49;98027.41;5123617;27;20465;-64
2021/01/22 11:15:06;;;;;;;17.73;11.23;;;;;;;5.29;76.34;98040.00;5144854;27;20711;-64
2021/01/22 11:17:32;;;;;;;16.57;10.53;;;;;;;5.23;76.28;98041.47;5138656;27;20495;-64
2021/01/22 11:20:02;;;;;;;17.50;12.40;;;;;;;5.41;76.11;98038.69;5127501;27;20473;-65
2021/01/22 11:22:28;;;;;;;16.27;11.53;;;;;;;5.34;76.78;98050.13;5145211;27;20449;-63
2021/01/22 11:24:55;;;;;;;16.37;11.57;;;;;;;5.78;75.61;98041.91;5142006;27;20453;-63
2021/01/22 11:27:21;;;;;;;16.80;11.63;;;;;;;5.75;75.94;98052.88;5142871;27;20460;-66
2021/01/22 11:29:47;;;;;;;14.67;11.00;;;;;;;5.62;74.46;98048.88;5144260;27;20943;-67
2021/01/22 11:32:14;;;;;;;16.20;11.20;;;;;;;5.83;75.19;98053.69;5143553;27;20472;-65
2021/01/22 11:34:40;;;;;;;15.70;11.57;;;;;;;5.80;74.54;98050.56;5142975;27;20449;-66
2021/01/22 11:37:06;;;;;;;16.53;11.83;;;;;;;5.88;73.71;98047.06;5137510;27;20461;-65